KAHN/AHN METAR and TAF weather

Enter ICAO airport designator
Station Type Date Time Source
KAHN METAR 2021/05/12 01:51 UTC NOAA

KAHN 120151Z AUTO 00000KT 10SM BKN070 21/18 A3007 RMK AO2 SLP177 T02110178 $


Station Type Date Time Source
KAHN Decoded METAR 2021/05/12 01:51 UTC NOAA

ATHENS BEN EPPS AIRPORT, GA, United States (KAHN) 33-57N 083-20W 244M
May 11, 2021 - 09:51 PM EDT / 2021.05.12 0151 UTC
Wind: Calm:0
Visibility: 10 mile(s):0
Sky conditions: mostly cloudy
Temperature: 70.0 F (21.1 C)
Dew Point: 64.0 F (17.8 C)
Relative Humidity: 81%
Pressure (altimeter): 30.07 in. Hg (1018 hPa)
ob: KAHN 120151Z AUTO 00000KT 10SM BKN070 21/18 A3007 RMK AO2 SLP177 T02110178
cycle: 2

Station Type Date Time Source
KAHN TAF 2021/05/11 18:45 UTC NOAA

TAF KAHN 111742Z 1118/1218 26004KT P6SM VCSH BKN030 BKN060
TEMPO 1200/1204 6SM -SHRA BKN035
FM120400 02004KT 6SM -SHRA BKN025 OVC060
FM120800 05005KT 6SM -SHRA BR OVC007
FM121600 06011G19KT 4SM -SHRA BR OVC005

Example: see airport list